Private Wetterstation Wechselburg
Wetterdaten: Montag, 17.06.2013
Datum Zeit Temp. +2m Bodentemp. Temp.+5cm Temp. Wind Windchill X Diff Temp. Feuchte +2m Feuchte +5cm Sonnenschein Luftdruck Regen Wind Richtung Richtung Sonnenschein UV Taupunkt Windchill Windben
17.06.2013 00:00 12,8 C 23,8 C 13,4 C 12,4 C 11,7 C 0,0 C 83 % 81 % 0 % 1016,4 hPa 0,0 l/m 0,0 km/h (0 Bft) O 90 0 min 0,0 UV-I 10,0 C 11,7 C 0,0 km/h (0 Bft)
17.06.2013 00:05 12,7 C 23,8 C 13,3 C 12,4 C 11,7 C 0,0 C 83 % 81 % 0 % 1016,4 hPa 0,0 l/m 0,0 km/h (0 Bft) NW 315 0 min 0,0 UV-I 9,9 C 11,7 C 0,0 km/h (0 Bft)
17.06.2013 00:10 12,5 C 23,8 C 13,2 C 12,2 C 11,5 C 0,0 C 83 % 82 % 0 % 1016,4 hPa 0,0 l/m 0,0 km/h (0 Bft) SO 135 0 min 0,0 UV-I 9,7 C 11,5 C 0,0 km/h (0 Bft)
17.06.2013 00:15 12,5 C 23,8 C 13,1 C 12,1 C 11,4 C 0,0 C 83 % 82 % 0 % 1016,7 hPa 0,0 l/m 0,0 km/h (0 Bft) N-NW 337 0 min 0,0 UV-I 9,7 C 11,4 C 0,0 km/h (0 Bft)
17.06.2013 00:20 12,3 C 23,9 C 13,0 C 12,0 C 11,4 C 0,0 C 83 % 82 % 0 % 1016,7 hPa 0,0 l/m 0,0 km/h (0 Bft) O 90 0 min 0,0 UV-I 9,5 C 11,4 C 0,0 km/h (0 Bft)
17.06.2013 00:25 12,2 C 24,0 C 12,9 C 12,0 C 11,5 C 0,0 C 84 % 82 % 0 % 1016,7 hPa 0,0 l/m 0,0 km/h (0 Bft) O-NO 67 0 min 0,0 UV-I 9,6 C 11,5 C 0,0 km/h (0 Bft)
17.06.2013 00:30 12,0 C 24,0 C 13,1 C 11,8 C 11,5 C 0,0 C 84 % 82 % 0 % 1016,7 hPa 0,0 l/m 0,2 km/h (0 Bft) O 90 0 min 0,0 UV-I 9,4 C 11,5 C 2,4 km/h (1 Bft)
17.06.2013 00:35 12,0 C 24,1 C 13,1 C 11,9 C 11,7 C 0,0 C 84 % 82 % 0 % 1016,1 hPa 0,0 l/m 0,5 km/h (0 Bft) O 90 0 min 0,0 UV-I 9,4 C 11,7 C 0,0 km/h (0 Bft)
17.06.2013 00:41 11,8 C 24,0 C 13,1 C 11,9 C 11,9 C 0,1 C 85 % 82 % 0 % 1016,1 hPa 0,0 l/m 0,8 km/h (0 Bft) N 0 0 min 0,0 UV-I 9,4 C 11,9 C 4,0 km/h (1 Bft)
17.06.2013 00:58 11,6 C 23,9 C 12,9 C 11,6 C 11,6 C 0,0 C 85 % 82 % 0 % 1016,4 hPa 0,0 l/m 0,0 km/h (0 Bft) S 180 0 min 0,0 UV-I 9,2 C 11,6 C 0,0 km/h (0 Bft)
17.06.2013 00:59 11,6 C 23,9 C 12,9 C 11,6 C 11,6 C 0,0 C 85 % 82 % 0 % 1016,4 hPa 0,0 l/m 0,0 km/h (0 Bft) S 180 0 min 0,0 UV-I 9,2 C 11,6 C 0,0 km/h (0 Bft)
17.06.2013 01:05 11,6 C 23,8 C 12,9 C 11,6 C 11,5 C 0,0 C 85 % 82 % 0 % 1016,4 hPa 0,0 l/m 0,0 km/h (0 Bft) SW 225 0 min 0,0 UV-I 9,2 C 11,5 C 0,0 km/h (0 Bft)
17.06.2013 01:15 11,5 C 24,0 C 12,7 C 11,4 C 11,2 C 0,0 C 85 % 82 % 0 % 1016,6 hPa 0,0 l/m 0,0 km/h (0 Bft) O-NO 67 0 min 0,0 UV-I 9,1 C 11,2 C 0,0 km/h (0 Bft)
17.06.2013 01:20 11,3 C 24,0 C 12,6 C 11,3 C 11,3 C 0,0 C 86 % 82 % 0 % 1016,6 hPa 0,0 l/m 0,2 km/h (0 Bft) NO 45 0 min 0,0 UV-I 9,0 C 11,3 C 0,0 km/h (0 Bft)
17.06.2013 01:25 11,3 C 23,9 C 12,7 C 11,3 C 11,3 C 0,0 C 86 % 82 % 0 % 1016,6 hPa 0,0 l/m 0,2 km/h (0 Bft) N-NW 337 0 min 0,0 UV-I 9,0 C 11,3 C 0,0 km/h (0 Bft)
17.06.2013 01:30 11,2 C 23,9 C 12,7 C 11,3 C 11,3 C 0,1 C 86 % 82 % 0 % 1016,6 hPa 0,0 l/m 0,2 km/h (0 Bft) SW 225 0 min 0,0 UV-I 8,9 C 11,3 C 0,0 km/h (0 Bft)
17.06.2013 01:35 11,2 C 23,9 C 12,7 C 11,3 C 11,3 C 0,1 C 86 % 82 % 0 % 1015,9 hPa 0,0 l/m 0,2 km/h (0 Bft) NW 315 0 min 0,0 UV-I 8,9 C 11,3 C 0,0 km/h (0 Bft)
17.06.2013 01:40 11,1 C 23,8 C 12,6 C 11,2 C 11,2 C 0,1 C 86 % 82 % 0 % 1015,9 hPa 0,0 l/m 0,0 km/h (0 Bft) SW 225 0 min 0,0 UV-I 8,8 C 11,2 C 0,0 km/h (0 Bft)
17.06.2013 01:45 11,1 C 23,9 C 12,7 C 11,2 C 11,2 C 0,1 C 86 % 82 % 0 % 1015,9 hPa 0,0 l/m 0,0 km/h (0 Bft) W 270 0 min 0,0 UV-I 8,8 C 11,2 C 0,0 km/h (0 Bft)
17.06.2013 01:50 11,1 C 23,8 C 12,6 C 11,1 C 11,1 C 0,0 C 86 % 82 % 0 % 1015,9 hPa 0,0 l/m 0,0 km/h (0 Bft) SW 225 0 min 0,0 UV-I 8,8 C 11,1 C 0,0 km/h (0 Bft)
17.06.2013 01:55 11,0 C 23,9 C 12,7 C 11,1 C 11,1 C 0,1 C 86 % 82 % 0 % 1016,6 hPa 0,0 l/m 0,0 km/h (0 Bft) O-SO 112 0 min 0,0 UV-I 8,7 C 11,1 C 0,0 km/h (0 Bft)
17.06.2013 02:00 10,9 C 23,9 C 12,5 C 11,1 C 11,1 C 0,2 C 86 % 82 % 0 % 1016,6 hPa 0,0 l/m 0,0 km/h (0 Bft) N-NW 337 0 min 0,0 UV-I 8,7 C 11,1 C 0,0 km/h (0 Bft)
17.06.2013 02:05 10,9 C 23,8 C 12,4 C 11,1 C 11,1 C 0,2 C 86 % 82 % 0 % 1016,6 hPa 0,0 l/m 0,0 km/h (0 Bft) NW 315 0 min 0,0 UV-I 8,7 C 11,1 C 0,0 km/h (0 Bft)
17.06.2013 02:10 10,8 C 23,9 C 12,4 C 11,0 C 11,0 C 0,2 C 86 % 82 % 0 % 1016,6 hPa 0,0 l/m 0,0 km/h (0 Bft) O-NO 67 0 min 0,0 UV-I 8,6 C 11,0 C 0,0 km/h (0 Bft)
17.06.2013 02:15 10,8 C 23,8 C 12,4 C 11,0 C 11,0 C 0,2 C 86 % 82 % 0 % 1016,2 hPa 0,0 l/m 0,0 km/h (0 Bft) O-NO 67 0 min 0,0 UV-I 8,6 C 11,0 C 0,0 km/h (0 Bft)
17.06.2013 02:20 10,9 C 23,8 C 12,5 C 10,9 C 10,9 C 0,0 C 87 % 82 % 0 % 1016,2 hPa 0,0 l/m 0,0 km/h (0 Bft) NO 45 0 min 0,0 UV-I 8,8 C 10,9 C 0,0 km/h (0 Bft)
17.06.2013 02:25 10,8 C 23,8 C 12,4 C 10,9 C 10,9 C 0,1 C 87 % 83 % 0 % 1016,2 hPa 0,0 l/m 0,0 km/h (0 Bft) O-SO 112 0 min 0,0 UV-I 8,7 C 10,9 C 0,0 km/h (0 Bft)
17.06.2013 02:30 10,7 C 23,8 C 12,3 C 10,7 C 10,7 C 0,0 C 87 % 83 % 0 % 1016,2 hPa 0,0 l/m 0,0 km/h (0 Bft) W-NW 292 0 min 0,0 UV-I 8,6 C 10,7 C 0,0 km/h (0 Bft)
17.06.2013 02:35 10,7 C 23,8 C 12,3 C 10,7 C 10,7 C 0,0 C 87 % 83 % 0 % 1016,4 hPa 0,0 l/m 0,0 km/h (0 Bft) N-NW 337 0 min 0,0 UV-I 8,6 C 10,7 C 0,0 km/h (0 Bft)
17.06.2013 02:40 10,6 C 23,7 C 12,2 C 10,6 C 10,6 C 0,0 C 87 % 83 % 0 % 1016,4 hPa 0,0 l/m 0,0 km/h (0 Bft) NW 315 0 min 0,0 UV-I 8,5 C 10,6 C 0,0 km/h (0 Bft)
17.06.2013 02:45 10,6 C 23,7 C 12,0 C 10,6 C 10,5 C 0,0 C 87 % 82 % 0 % 1016,4 hPa 0,0 l/m 0,0 km/h (0 Bft) W-SW 247 0 min 0,0 UV-I 8,5 C 10,5 C 0,0 km/h (0 Bft)
17.06.2013 02:50 10,5 C 23,7 C 12,0 C 10,5 C 10,5 C 0,0 C 87 % 82 % 0 % 1016,4 hPa 0,0 l/m 0,0 km/h (0 Bft) N-NO 22 0 min 0,0 UV-I 8,4 C 10,5 C 0,0 km/h (0 Bft)
17.06.2013 02:55 10,4 C 23,8 C 12,1 C 10,5 C 10,5 C 0,1 C 87 % 83 % 0 % 1016,6 hPa 0,0 l/m 0,0 km/h (0 Bft) O 90 0 min 0,0 UV-I 8,3 C 10,5 C 0,0 km/h (0 Bft)
17.06.2013 03:00 10,4 C 23,8 C 11,9 C 10,5 C 10,5 C 0,1 C 87 % 82 % 0 % 1016,6 hPa 0,0 l/m 0,0 km/h (0 Bft) O 90 0 min 0,0 UV-I 8,3 C 10,5 C 0,0 km/h (0 Bft)
17.06.2013 03:05 10,5 C 23,8 C 11,9 C 10,6 C 10,6 C 0,1 C 87 % 83 % 0 % 1016,6 hPa 0,0 l/m 0,0 km/h (0 Bft) O-NO 67 0 min 0,0 UV-I 8,4 C 10,6 C 0,0 km/h (0 Bft)
17.06.2013 03:10 10,4 C 23,7 C 11,9 C 10,6 C 10,6 C 0,2 C 87 % 82 % 0 % 1016,6 hPa 0,0 l/m 0,0 km/h (0 Bft) O-NO 67 0 min 0,0 UV-I 8,3 C 10,6 C 0,0 km/h (0 Bft)
17.06.2013 03:15 10,4 C 23,7 C 11,9 C 10,6 C 10,6 C 0,2 C 88 % 82 % 0 % 1017,2 hPa 0,0 l/m 0,0 km/h (0 Bft) W-SW 247 0 min 0,0 UV-I 8,5 C 10,6 C 0,0 km/h (0 Bft)
17.06.2013 03:20 10,3 C 23,7 C 12,0 C 10,5 C 10,5 C 0,2 C 88 % 82 % 0 % 1017,2 hPa 0,0 l/m 0,0 km/h (0 Bft) S 180 0 min 0,0 UV-I 8,4 C 10,5 C 0,0 km/h (0 Bft)
17.06.2013 03:25 10,3 C 23,7 C 11,8 C 10,5 C 10,5 C 0,2 C 88 % 82 % 0 % 1017,2 hPa 0,0 l/m 0,0 km/h (0 Bft) O-NO 67 0 min 0,0 UV-I 8,4 C 10,5 C 0,0 km/h (0 Bft)
17.06.2013 03:30 10,3 C 23,7 C 11,9 C 10,6 C 10,6 C 0,3 C 88 % 82 % 0 % 1017,2 hPa 0,0 l/m 0,0 km/h (0 Bft) O-SO 112 0 min 0,0 UV-I 8,4 C 10,6 C 0,0 km/h (0 Bft)
17.06.2013 03:35 10,2 C 23,7 C 11,9 C 10,5 C 10,5 C 0,3 C 88 % 82 % 0 % 1016,6 hPa 0,0 l/m 0,2 km/h (0 Bft) NW 315 0 min 0,0 UV-I 8,3 C 10,5 C 0,0 km/h (0 Bft)
17.06.2013 03:40 10,3 C 23,7 C 11,9 C 10,4 C 10,4 C 0,1 C 88 % 82 % 0 % 1016,6 hPa 0,0 l/m 0,2 km/h (0 Bft) O-NO 67 0 min 0,0 UV-I 8,4 C 10,4 C 0,0 km/h (0 Bft)
17.06.2013 03:45 10,3 C 23,7 C 11,8 C 10,4 C 10,4 C 0,1 C 88 % 82 % 0 % 1016,6 hPa 0,0 l/m 0,0 km/h (0 Bft) O 90 0 min 0,0 UV-I 8,4 C 10,4 C 0,0 km/h (0 Bft)
17.06.2013 03:50 10,1 C 23,6 C 11,6 C 10,2 C 10,2 C 0,1 C 88 % 82 % 0 % 1016,6 hPa 0,0 l/m 0,0 km/h (0 Bft) O-NO 67 0 min 0,0 UV-I 8,2 C 10,2 C 0,0 km/h (0 Bft)
17.06.2013 03:55 10,0 C 23,6 C 11,7 C 10,2 C 10,2 C 0,2 C 88 % 82 % 0 % 1016,9 hPa 0,0 l/m 0,0 km/h (0 Bft) O 90 0 min 0,0 UV-I 8,1 C 10,2 C 0,0 km/h (0 Bft)
17.06.2013 04:00 10,1 C 23,6 C 11,5 C 10,2 C 10,2 C 0,1 C 88 % 82 % 0 % 1016,9 hPa 0,0 l/m 0,0 km/h (0 Bft) NW 315 0 min 0,0 UV-I 8,2 C 10,2 C 0,0 km/h (0 Bft)
17.06.2013 04:05 10,0 C 23,6 C 11,5 C 10,1 C 10,1 C 0,1 C 88 % 83 % 0 % 1016,9 hPa 0,0 l/m 0,0 km/h (0 Bft) NW 315 0 min 0,0 UV-I 8,1 C 10,1 C 0,0 km/h (0 Bft)
17.06.2013 04:10 9,9 C 23,6 C 11,5 C 10,1 C 10,1 C 0,2 C 88 % 83 % 0 % 1016,9 hPa 0,0 l/m 0,0 km/h (0 Bft) SO 135 0 min 0,0 UV-I 8,0 C 10,1 C 0,0 km/h (0 Bft)
17.06.2013 04:15 9,9 C 23,6 C 11,5 C 9,9 C 9,9 C 0,0 C 88 % 83 % 0 % 1016,8 hPa 0,0 l/m 0,0 km/h (0 Bft) SO 135 0 min 0,0 UV-I 8,0 C 9,9 C 0,0 km/h (0 Bft)
17.06.2013 04:20 9,9 C 23,6 C 11,4 C 9,9 C 9,9 C 0,0 C 88 % 83 % 0 % 1016,8 hPa 0,0 l/m 0,0 km/h (0 Bft) N-NW 337 0 min 0,0 UV-I 8,0 C 9,9 C 0,0 km/h (0 Bft)
17.06.2013 04:25 9,8 C 23,6 C 11,4 C 9,9 C 9,9 C 0,1 C 88 % 83 % 0 % 1016,8 hPa 0,0 l/m 0,0 km/h (0 Bft) O-NO 67 0 min 0,0 UV-I 7,9 C 9,9 C 0,0 km/h (0 Bft)
17.06.2013 04:30 9,8 C 23,5 C 11,4 C 9,9 C 9,9 C 0,1 C 88 % 83 % 0 % 1016,8 hPa 0,0 l/m 0,0 km/h (0 Bft) N-NW 337 0 min 0,0 UV-I 7,9 C 9,9 C 0,0 km/h (0 Bft)
17.06.2013 04:35 9,7 C 23,5 C 11,5 C 9,9 C 9,9 C 0,2 C 88 % 83 % 0 % 1016,7 hPa 0,0 l/m 0,0 km/h (0 Bft) O-SO 112 0 min 0,0 UV-I 7,8 C 9,9 C 0,0 km/h (0 Bft)
17.06.2013 04:40 9,7 C 23,5 C 11,3 C 10,0 C 10,0 C 0,3 C 88 % 83 % 0 % 1016,7 hPa 0,0 l/m 0,0 km/h (0 Bft) O-NO 67 0 min 0,0 UV-I 7,8 C 10,0 C 0,0 km/h (0 Bft)
17.06.2013 04:45 9,7 C 23,5 C 11,2 C 9,9 C 9,9 C 0,2 C 88 % 83 % 0 % 1016,7 hPa 0,0 l/m 0,0 km/h (0 Bft) NW 315 0 min 0,0 UV-I 7,8 C 9,9 C 0,0 km/h (0 Bft)
17.06.2013 04:50 9,7 C 23,5 C 11,2 C 9,9 C 9,9 C 0,2 C 89 % 83 % 0 % 1016,7 hPa 0,0 l/m 0,0 km/h (0 Bft) O-NO 67 0 min 0,0 UV-I 8,0 C 9,9 C 0,0 km/h (0 Bft)
17.06.2013 04:55 9,6 C 23,5 C 11,3 C 9,9 C 9,9 C 0,3 C 89 % 83 % 0 % 1016,5 hPa 0,0 l/m 0,0 km/h (0 Bft) NW 315 0 min 0,0 UV-I 7,9 C 9,9 C 0,0 km/h (0 Bft)
17.06.2013 05:00 9,7 C 23,5 C 11,1 C 9,9 C 9,9 C 0,2 C 89 % 83 % 0 % 1016,5 hPa 0,0 l/m 0,0 km/h (0 Bft) S-SO 157 0 min 0,0 UV-I 8,0 C 9,9 C 0,0 km/h (0 Bft)
17.06.2013 05:05 9,6 C 23,5 C 11,3 C 9,9 C 9,9 C 0,3 C 89 % 83 % 0 % 1016,5 hPa 0,0 l/m 0,0 km/h (0 Bft) O-NO 67 0 min 0,0 UV-I 7,9 C 9,9 C 0,0 km/h (0 Bft)
17.06.2013 05:10 9,6 C 23,5 C 11,2 C 9,9 C 9,9 C 0,3 C 89 % 83 % 8 % 1016,5 hPa 0,0 l/m 0,0 km/h (0 Bft) W-NW 292 5 min 0,0 UV-I 7,9 C 9,9 C 0,0 km/h (0 Bft)
17.06.2013 05:15 9,6 C 23,5 C 11,3 C 9,9 C 9,9 C 0,3 C 89 % 83 % 8 % 1016,9 hPa 0,0 l/m 0,0 km/h (0 Bft) S 180 0 min 0,0 UV-I 7,9 C 9,9 C 0,0 km/h (0 Bft)
17.06.2013 05:20 9,6 C 23,4 C 11,2 C 9,9 C 9,9 C 0,3 C 89 % 83 % 8 % 1016,9 hPa 0,0 l/m 0,0 km/h (0 Bft) NW 315 0 min 0,0 UV-I 7,9 C 9,9 C 0,0 km/h (0 Bft)
17.06.2013 05:25 9,5 C 23,4 C 11,2 C 9,9 C 9,9 C 0,4 C 89 % 83 % 11 % 1016,9 hPa 0,0 l/m 0,0 km/h (0 Bft) W 270 0 min 0,0 UV-I 7,8 C 9,9 C 0,0 km/h (0 Bft)
17.06.2013 05:30 9,5 C 23,4 C 11,2 C 9,9 C 9,9 C 0,4 C 89 % 83 % 11 % 1016,9 hPa 0,0 l/m 0,0 km/h (0 Bft) O-NO 67 0 min 0,0 UV-I 7,8 C 9,9 C 0,0 km/h (0 Bft)
17.06.2013 05:35 9,4 C 23,4 C 11,1 C 9,9 C 9,9 C 0,5 C 89 % 83 % 13 % 1016,6 hPa 0,0 l/m 0,0 km/h (0 Bft) N-NO 22 0 min 0,0 UV-I 7,7 C 9,9 C 0,0 km/h (0 Bft)
17.06.2013 05:40 9,5 C 23,3 C 11,1 C 9,9 C 9,9 C 0,4 C 89 % 83 % 11 % 1016,6 hPa 0,0 l/m 0,0 km/h (0 Bft) W-NW 292 0 min 0,0 UV-I 7,8 C 9,9 C 0,0 km/h (0 Bft)
17.06.2013 05:45 9,4 C 23,3 C 11,1 C 9,9 C 9,9 C 0,5 C 89 % 83 % 13 % 1016,6 hPa 0,0 l/m 0,0 km/h (0 Bft) SW 225 0 min 0,0 UV-I 7,7 C 9,9 C 0,0 km/h (0 Bft)
17.06.2013 05:50 9,5 C 23,4 C 11,1 C 10,0 C 10,0 C 0,5 C 89 % 83 % 13 % 1016,6 hPa 0,0 l/m 0,0 km/h (0 Bft) SW 225 0 min 0,0 UV-I 7,8 C 10,0 C 0,0 km/h (0 Bft)
17.06.2013 05:55 9,5 C 23,3 C 11,3 C 10,0 C 10,0 C 0,5 C 89 % 83 % 13 % 1016,6 hPa 0,0 l/m 0,0 km/h (0 Bft) W-SW 247 0 min 0,0 UV-I 7,8 C 10,0 C 0,0 km/h (0 Bft)
17.06.2013 06:00 9,5 C 23,3 C 11,2 C 10,2 C 10,2 C 0,7 C 89 % 83 % 18 % 1016,6 hPa 0,0 l/m 0,0 km/h (0 Bft) N-NO 22 0 min 0,0 UV-I 7,8 C 10,2 C 0,0 km/h (0 Bft)
17.06.2013 06:05 9,5 C 23,3 C 11,3 C 10,3 C 10,3 C 0,8 C 89 % 83 % 21 % 1016,6 hPa 0,0 l/m 0,0 km/h (0 Bft) W 270 0 min 0,0 UV-I 7,8 C 10,3 C 0,0 km/h (0 Bft)
17.06.2013 06:10 9,5 C 23,3 C 11,6 C 10,6 C 10,6 C 1,1 C 90 % 83 % 29 % 1016,6 hPa 0,0 l/m 0,0 km/h (0 Bft) SW 225 0 min 0,1 UV-I 7,9 C 10,6 C 0,0 km/h (0 Bft)
17.06.2013 06:15 9,7 C 23,3 C 11,6 C 10,7 C 10,7 C 1,0 C 90 % 83 % 26 % 1016,7 hPa 0,0 l/m 0,0 km/h (0 Bft) N-NW 337 0 min 0,1 UV-I 8,1 C 10,7 C 0,0 km/h (0 Bft)
17.06.2013 06:20 9,8 C 23,3 C 11,7 C 10,9 C 10,9 C 1,1 C 90 % 83 % 29 % 1016,7 hPa 0,0 l/m 0,0 km/h (0 Bft) NW 315 0 min 0,1 UV-I 8,2 C 10,9 C 0,0 km/h (0 Bft)
17.06.2013 06:25 9,9 C 23,3 C 11,9 C 11,1 C 11,1 C 1,2 C 90 % 83 % 32 % 1016,7 hPa 0,0 l/m 0,0 km/h (0 Bft) N 360 0 min 0,1 UV-I 8,3 C 11,1 C 0,0 km/h (0 Bft)
17.06.2013 06:30 10,0 C 23,3 C 12,0 C 11,3 C 11,3 C 1,3 C 90 % 83 % 34 % 1016,7 hPa 0,0 l/m 0,2 km/h (0 Bft) SW 225 0 min 0,1 UV-I 8,4 C 11,3 C 0,0 km/h (0 Bft)
17.06.2013 06:35 10,0 C 23,3 C 12,0 C 11,4 C 11,4 C 1,4 C 90 % 82 % 37 % 1016,6 hPa 0,0 l/m 0,2 km/h (0 Bft) W 270 0 min 0,1 UV-I 8,4 C 11,4 C 0,0 km/h (0 Bft)
17.06.2013 06:41 10,3 C 23,3 C 12,2 C 11,9 C 11,9 C 1,6 C 91 % 83 % 42 % 1016,6 hPa 0,0 l/m 0,0 km/h (0 Bft) N 0 0 min 0,2 UV-I 8,9 C 11,9 C 0,0 km/h (0 Bft)
17.06.2013 07:00 11,2 C 23,1 C 13,2 C 13,3 C 13,3 C 2,1 C 92 % 82 % 55 % 1016,4 hPa 0,0 l/m 0,0 km/h (0 Bft) W-SW 247 0 min 0,0 UV-I 9,9 C 13,3 C 0,0 km/h (0 Bft)
17.06.2013 07:05 11,3 C 23,1 C 13,2 C 13,3 C 13,3 C 2,0 C 91 % 82 % 53 % 1016,4 hPa 0,0 l/m 0,0 km/h (0 Bft) SW 225 0 min 0,0 UV-I 9,9 C 13,3 C 0,0 km/h (0 Bft)
17.06.2013 07:10 11,4 C 23,1 C 13,3 C 13,5 C 13,5 C 2,1 C 91 % 82 % 55 % 1016,4 hPa 0,0 l/m 0,0 km/h (0 Bft) W-SW 247 0 min 0,0 UV-I 10,0 C 13,5 C 0,0 km/h (0 Bft)
17.06.2013 07:15 11,7 C 23,1 C 13,5 C 13,8 C 13,8 C 2,1 C 91 % 82 % 55 % 1016,8 hPa 0,0 l/m 0,0 km/h (0 Bft) W-SW 247 0 min 0,0 UV-I 10,3 C 13,8 C 0,0 km/h (0 Bft)
17.06.2013 07:20 11,9 C 23,0 C 13,7 C 14,2 C 14,2 C 2,3 C 91 % 82 % 61 % 1016,8 hPa 0,0 l/m 0,0 km/h (0 Bft) O-NO 67 0 min 0,0 UV-I 10,5 C 14,2 C 0,0 km/h (0 Bft)
17.06.2013 07:25 12,0 C 22,9 C 13,9 C 14,6 C 14,6 C 2,6 C 91 % 82 % 68 % 1016,8 hPa 0,0 l/m 0,0 km/h (0 Bft) W 270 0 min 0,0 UV-I 10,6 C 14,6 C 0,0 km/h (0 Bft)
17.06.2013 07:30 12,1 C 22,8 C 14,1 C 15,2 C 15,2 C 3,1 C 91 % 82 % 82 % 1016,8 hPa 0,0 l/m 0,0 km/h (0 Bft) O-SO 112 0 min 0,0 UV-I 10,7 C 15,2 C 0,0 km/h (0 Bft)
17.06.2013 07:35 12,3 C 22,9 C 14,1 C 15,9 C 15,9 C 3,6 C 91 % 81 % 95 % 1016,8 hPa 0,0 l/m 0,0 km/h (0 Bft) N-NW 337 5 min 0,0 UV-I 10,9 C 15,9 C 0,0 km/h (0 Bft)
17.06.2013 07:40 12,7 C 22,9 C 14,5 C 16,8 C 16,8 C 4,1 C 91 % 81 % 100 % 1016,8 hPa 0,0 l/m 0,0 km/h (0 Bft) NO 45 5 min 0,0 UV-I 11,3 C 16,8 C 0,0 km/h (0 Bft)
17.06.2013 07:45 12,9 C 22,9 C 14,6 C 17,0 C 17,0 C 4,1 C 91 % 81 % 100 % 1016,8 hPa 0,0 l/m 0,0 km/h (0 Bft) O-NO 67 5 min 0,0 UV-I 11,5 C 17,0 C 0,0 km/h (0 Bft)
17.06.2013 07:50 13,3 C 22,9 C 14,8 C 17,1 C 17,1 C 3,8 C 91 % 81 % 100 % 1016,8 hPa 0,0 l/m 0,2 km/h (0 Bft) O 90 5 min 0,0 UV-I 11,9 C 17,1 C 0,0 km/h (0 Bft)
17.06.2013 07:55 13,5 C 22,8 C 15,1 C 18,5 C 18,5 C 5,0 C 90 % 81 % 100 % 1016,6 hPa 0,0 l/m 0,2 km/h (0 Bft) NW 315 5 min 0,0 UV-I 11,9 C 18,5 C 0,0 km/h (0 Bft)
17.06.2013 08:00 14,0 C 22,8 C 15,5 C 20,4 C 20,4 C 6,4 C 89 % 81 % 100 % 1016,6 hPa 0,0 l/m 0,0 km/h (0 Bft) O-NO 67 5 min 0,0 UV-I 12,2 C 20,4 C 0,0 km/h (0 Bft)
17.06.2013 08:05 14,7 C 22,7 C 15,7 C 22,1 C 22,1 C 7,4 C 89 % 80 % 100 % 1016,6 hPa 0,0 l/m 0,2 km/h (0 Bft) O-NO 67 5 min 0,0 UV-I 12,9 C 22,1 C 0,0 km/h (0 Bft)
17.06.2013 08:10 15,5 C 22,7 C 15,9 C 22,6 C 22,6 C 7,1 C 86 % 80 % 100 % 1016,6 hPa 0,0 l/m 0,3 km/h (0 Bft) N-NW 337 5 min 0,0 UV-I 13,2 C 22,6 C 1,8 km/h (1 Bft)
17.06.2013 08:15 15,6 C 22,7 C 16,0 C 23,7 C 23,7 C 8,1 C 85 % 80 % 100 % 1017,1 hPa 0,0 l/m 0,6 km/h (0 Bft) O 90 5 min 0,0 UV-I 13,1 C 23,7 C 1,9 km/h (1 Bft)
17.06.2013 08:20 16,4 C 22,7 C 16,3 C 24,5 C 24,5 C 8,1 C 84 % 79 % 100 % 1017,1 hPa 0,0 l/m 0,8 km/h (0 Bft) O-NO 67 5 min 0,0 UV-I 13,7 C 24,5 C 1,8 km/h (1 Bft)
17.06.2013 08:25 17,1 C 22,7 C 16,4 C 24,7 C 24,7 C 7,6 C 82 % 79 % 100 % 1017,1 hPa 0,0 l/m 1,0 km/h (0 Bft) N-NW 337 5 min 0,0 UV-I 14,0 C 24,7 C 1,6 km/h (1 Bft)
17.06.2013 08:30 17,7 C 22,7 C 16,5 C 24,8 C 24,8 C 7,1 C 80 % 78 % 100 % 1017,1 hPa 0,0 l/m 0,6 km/h (0 Bft) N 360 5 min 0,0 UV-I 14,2 C 24,8 C 0,0 km/h (0 Bft)
17.06.2013 08:35 17,9 C 22,7 C 16,6 C 25,4 C 25,4 C 7,5 C 79 % 78 % 100 % 1017,1 hPa 0,0 l/m 0,3 km/h (0 Bft) N-NW 337 5 min 0,0 UV-I 14,2 C 25,4 C 0,0 km/h (0 Bft)
17.06.2013 08:40 18,0 C 22,7 C 16,9 C 26,1 C 26,1 C 8,1 C 78 % 79 % 100 % 1017,1 hPa 0,0 l/m 0,5 km/h (0 Bft) O-SO 112 5 min 0,0 UV-I 14,1 C 26,1 C 2,9 km/h (1 Bft)
17.06.2013 08:45 18,3 C 22,7 C 17,1 C 25,3 C 25,3 C 7,0 C 78 % 78 % 100 % 1017,1 hPa 0,0 l/m 0,6 km/h (0 Bft) N-NW 337 5 min 0,0 UV-I 14,4 C 25,3 C 4,8 km/h (1 Bft)
17.06.2013 08:50 18,4 C 22,7 C 17,3 C 25,3 C 25,3 C 6,9 C 77 % 78 % 100 % 1017,1 hPa 0,0 l/m 1,0 km/h (0 Bft) NO 45 5 min 0,0 UV-I 14,3 C 25,3 C 0,0 km/h (0 Bft)
17.06.2013 08:55 18,8 C 22,7 C 17,5 C 25,8 C 25,8 C 7,0 C 76 % 78 % 100 % 1016,8 hPa 0,0 l/m 1,1 km/h (1 Bft) N-NW 337 5 min 0,0 UV-I 14,5 C 25,8 C 1,8 km/h (1 Bft)
17.06.2013 09:00 19,1 C 22,6 C 18,1 C 26,6 C 26,6 C 7,5 C 75 % 78 % 100 % 1016,8 hPa 0,0 l/m 1,3 km/h (1 Bft) NO 45 5 min 0,0 UV-I 14,6 C 26,6 C 5,6 km/h (1 Bft)
17.06.2013 09:05 19,3 C 22,6 C 18,1 C 25,6 C 25,6 C 6,3 C 74 % 77 % 100 % 1016,8 hPa 0,0 l/m 1,8 km/h (1 Bft) O-NO 67 5 min 0,0 UV-I 14,5 C 25,6 C 2,7 km/h (1 Bft)
17.06.2013 09:10 19,6 C 22,6 C 18,3 C 25,0 C 25,0 C 5,4 C 74 % 76 % 100 % 1016,8 hPa 0,0 l/m 1,9 km/h (1 Bft) O 90 5 min 0,0 UV-I 14,8 C 25,0 C 3,2 km/h (1 Bft)
17.06.2013 09:15 19,7 C 22,6 C 18,4 C 24,1 C 24,1 C 4,4 C 71 % 75 % 100 % 1016,8 hPa 0,0 l/m 2,1 km/h (1 Bft) O 90 5 min 0,0 UV-I 14,3 C 24,1 C 6,0 km/h (2 Bft)
17.06.2013 09:20 19,9 C 22,6 C 18,7 C 24,5 C 24,5 C 4,6 C 71 % 73 % 100 % 1016,8 hPa 0,0 l/m 3,1 km/h (1 Bft) O-NO 67 5 min 0,0 UV-I 14,5 C 24,5 C 6,9 km/h (2 Bft)
17.06.2013 09:25 20,1 C 22,6 C 18,8 C 25,0 C 25,0 C 4,9 C 69 % 71 % 100 % 1016,8 hPa 0,0 l/m 3,1 km/h (1 Bft) O-SO 112 5 min 0,0 UV-I 14,2 C 25,0 C 2,1 km/h (1 Bft)
17.06.2013 09:30 20,0 C 22,6 C 19,0 C 24,3 C 24,3 C 4,3 C 67 % 72 % 100 % 1016,8 hPa 0,0 l/m 2,9 km/h (1 Bft) O 90 5 min 0,0 UV-I 13,7 C 24,3 C 5,5 km/h (1 Bft)
17.06.2013 09:35 19,9 C 22,6 C 19,1 C 23,7 C 23,7 C 3,8 C 68 % 72 % 100 % 1016,7 hPa 0,0 l/m 2,9 km/h (1 Bft) O-NO 67 5 min 0,0 UV-I 13,8 C 23,7 C 3,2 km/h (1 Bft)
17.06.2013 09:40 19,7 C 22,6 C 18,8 C 22,7 C 22,7 C 3,0 C 64 % 69 % 79 % 1016,7 hPa 0,0 l/m 4,2 km/h (1 Bft) O-NO 67 0 min 0,0 UV-I 12,7 C 22,7 C 9,2 km/h (2 Bft)
17.06.2013 09:45 19,6 C 22,6 C 18,9 C 22,1 C 22,1 C 2,5 C 64 % 70 % 66 % 1016,7 hPa 0,0 l/m 5,1 km/h (1 Bft) O-NO 67 0 min 0,0 UV-I 12,6 C 22,1 C 7,4 km/h (2 Bft)
17.06.2013 09:50 19,8 C 22,6 C 19,3 C 23,1 C 23,1 C 3,3 C 67 % 71 % 87 % 1016,7 hPa 0,0 l/m 5,0 km/h (1 Bft) NO 45 5 min 0,0 UV-I 13,5 C 23,1 C 2,3 km/h (1 Bft)
17.06.2013 09:55 19,9 C 22,7 C 19,3 C 23,5 C 23,5 C 3,6 C 66 % 70 % 95 % 1016,8 hPa 0,0 l/m 4,2 km/h (1 Bft) O-NO 67 5 min 0,0 UV-I 13,4 C 23,5 C 4,5 km/h (1 Bft)
17.06.2013 10:00 20,1 C 22,7 C 19,4 C 24,3 C 24,3 C 4,2 C 67 % 70 % 100 % 1016,8 hPa 0,0 l/m 3,7 km/h (1 Bft) O-SO 112 5 min 0,0 UV-I 13,8 C 24,3 C 4,3 km/h (1 Bft)
17.06.2013 10:05 20,3 C 22,7 C 19,6 C 24,9 C 24,9 C 4,6 C 67 % 70 % 100 % 1016,8 hPa 0,0 l/m 4,0 km/h (1 Bft) O-NO 67 5 min 0,0 UV-I 14,0 C 24,9 C 6,9 km/h (2 Bft)
17.06.2013 10:10 20,3 C 22,7 C 19,6 C 24,4 C 24,4 C 4,1 C 65 % 71 % 100 % 1016,8 hPa 0,0 l/m 4,7 km/h (1 Bft) NO 45 5 min 0,0 UV-I 13,5 C 24,4 C 4,3 km/h (1 Bft)
17.06.2013 10:15 20,4 C 22,6 C 19,7 C 24,9 C 24,9 C 4,5 C 63 % 68 % 100 % 1016,5 hPa 0,0 l/m 5,5 km/h (1 Bft) O-NO 67 5 min 0,0 UV-I 13,1 C 24,9 C 7,4 km/h (2 Bft)
17.06.2013 10:20 20,5 C 22,6 C 20,1 C 24,5 C 24,5 C 4,0 C 62 % 67 % 100 % 1016,5 hPa 0,0 l/m 6,1 km/h (2 Bft) O-NO 67 5 min 0,0 UV-I 13,0 C 24,5 C 10,9 km/h (2 Bft)
17.06.2013 10:25 20,5 C 22,6 C 20,0 C 24,0 C 24,0 C 3,5 C 62 % 66 % 92 % 1016,5 hPa 0,0 l/m 6,6 km/h (2 Bft) O-SO 112 5 min 0,0 UV-I 13,0 C 24,0 C 8,0 km/h (2 Bft)
17.06.2013 10:30 20,6 C 22,6 C 20,1 C 24,0 C 24,0 C 3,4 C 61 % 65 % 89 % 1016,5 hPa 0,0 l/m 7,1 km/h (2 Bft) O 90 5 min 0,0 UV-I 12,8 C 24,0 C 12,6 km/h (3 Bft)
17.06.2013 10:35 20,7 C 22,6 C 20,1 C 23,8 C 23,8 C 3,1 C 60 % 64 % 82 % 1016,3 hPa 0,0 l/m 7,6 km/h (2 Bft) O 90 0 min 0,0 UV-I 12,7 C 23,8 C 13,2 km/h (3 Bft)
17.06.2013 10:40 20,7 C 22,6 C 20,2 C 23,7 C 23,7 C 3,0 C 63 % 67 % 79 % 1016,3 hPa 0,0 l/m 7,1 km/h (2 Bft) O-NO 67 0 min 0,0 UV-I 13,4 C 23,7 C 7,7 km/h (2 Bft)
17.06.2013 10:45 20,8 C 22,6 C 20,3 C 23,7 C 23,7 C 2,9 C 61 % 65 % 76 % 1016,3 hPa 0,0 l/m 6,6 km/h (2 Bft) O-NO 67 0 min 0,0 UV-I 13,0 C 23,7 C 6,9 km/h (2 Bft)
17.06.2013 10:50 21,0 C 22,7 C 20,4 C 24,2 C 24,2 C 3,2 C 61 % 65 % 84 % 1016,3 hPa 0,0 l/m 5,1 km/h (1 Bft) O-NO 67 0 min 0,0 UV-I 13,2 C 24,2 C 4,2 km/h (1 Bft)
17.06.2013 10:55 21,2 C 22,7 C 20,7 C 24,9 C 24,9 C 3,7 C 62 % 66 % 97 % 1016,4 hPa 0,0 l/m 4,5 km/h (1 Bft) O-NO 67 5 min 0,0 UV-I 13,6 C 24,9 C 4,3 km/h (1 Bft)
17.06.2013 11:00 21,3 C 22,7 C 20,7 C 25,1 C 25,1 C 3,8 C 61 % 66 % 100 % 1016,4 hPa 0,0 l/m 5,0 km/h (1 Bft) O-NO 67 5 min 0,0 UV-I 13,5 C 25,1 C 7,2 km/h (2 Bft)
17.06.2013 11:05 21,5 C 22,7 C 20,9 C 25,2 C 25,2 C 3,7 C 62 % 68 % 97 % 1016,4 hPa 0,0 l/m 5,6 km/h (1 Bft) O 90 5 min 0,0 UV-I 13,9 C 25,2 C 5,1 km/h (1 Bft)
17.06.2013 11:10 21,6 C 22,7 C 21,0 C 25,4 C 25,4 C 3,8 C 61 % 67 % 100 % 1016,4 hPa 0,0 l/m 5,6 km/h (1 Bft) O-SO 112 5 min 0,0 UV-I 13,7 C 25,4 C 5,6 km/h (1 Bft)
17.06.2013 11:15 21,7 C 22,7 C 21,1 C 25,2 C 25,2 C 3,5 C 62 % 67 % 92 % 1016,4 hPa 0,0 l/m 5,3 km/h (1 Bft) O-NO 67 5 min 0,0 UV-I 14,1 C 25,2 C 4,8 km/h (1 Bft)
17.06.2013 11:20 21,9 C 22,8 C 21,3 C 25,2 C 25,2 C 3,3 C 62 % 66 % 87 % 1016,4 hPa 0,0 l/m 4,5 km/h (1 Bft) O-NO 67 5 min 0,0 UV-I 14,3 C 25,2 C 6,3 km/h (2 Bft)
17.06.2013 11:25 21,9 C 22,8 C 21,3 C 25,5 C 25,5 C 3,6 C 60 % 64 % 95 % 1016,4 hPa 0,0 l/m 4,8 km/h (1 Bft) O-NO 67 5 min 0,0 UV-I 13,8 C 25,5 C 8,4 km/h (2 Bft)
17.06.2013 11:30 21,9 C 22,8 C 21,2 C 25,6 C 25,6 C 3,7 C 60 % 64 % 97 % 1016,4 hPa 0,0 l/m 6,1 km/h (2 Bft) O-NO 67 5 min 0,0 UV-I 13,8 C 25,6 C 10,5 km/h (2 Bft)
17.06.2013 11:35 21,9 C 22,8 C 21,3 C 25,6 C 25,6 C 3,7 C 62 % 66 % 97 % 1016,3 hPa 0,0 l/m 6,8 km/h (2 Bft) O 90 5 min 0,0 UV-I 14,3 C 25,6 C 7,1 km/h (2 Bft)
17.06.2013 11:40 22,0 C 22,7 C 21,5 C 25,9 C 25,9 C 3,9 C 61 % 66 % 100 % 1016,3 hPa 0,0 l/m 6,8 km/h (2 Bft) O-SO 112 5 min 0,0 UV-I 14,1 C 25,9 C 7,6 km/h (2 Bft)
17.06.2013 11:45 22,0 C 22,7 C 21,5 C 26,0 C 26,0 C 4,0 C 63 % 66 % 100 % 1016,3 hPa 0,0 l/m 6,1 km/h (2 Bft) O-NO 67 5 min 0,0 UV-I 14,6 C 26,0 C 9,3 km/h (2 Bft)
17.06.2013 11:50 22,1 C 22,8 C 21,7 C 26,0 C 26,0 C 3,9 C 63 % 67 % 100 % 1016,3 hPa 0,0 l/m 6,3 km/h (2 Bft) O 90 5 min 0,0 UV-I 14,7 C 26,0 C 9,0 km/h (2 Bft)
17.06.2013 11:55 22,3 C 22,8 C 21,6 C 26,0 C 26,0 C 3,7 C 62 % 66 % 97 % 1015,9 hPa 0,0 l/m 6,9 km/h (2 Bft) O-SO 112 5 min 0,0 UV-I 14,7 C 26,0 C 6,8 km/h (2 Bft)
17.06.2013 12:00 22,3 C 22,8 C 21,7 C 26,0 C 26,0 C 3,7 C 62 % 66 % 97 % 1015,9 hPa 0,0 l/m 7,4 km/h (2 Bft) N-NW 337 5 min 0,0 UV-I 14,7 C 26,0 C 13,4 km/h (3 Bft)
17.06.2013 12:05 22,4 C 22,8 C 21,8 C 26,1 C 26,1 C 3,7 C 62 % 65 % 97 % 1015,9 hPa 0,0 l/m 7,2 km/h (2 Bft) O 90 5 min 0,0 UV-I 14,8 C 26,1 C 6,6 km/h (2 Bft)
17.06.2013 12:10 22,7 C 22,8 C 21,8 C 26,1 C 26,1 C 3,4 C 61 % 65 % 89 % 1015,9 hPa 0,0 l/m 7,9 km/h (2 Bft) O 90 5 min 0,0 UV-I 14,8 C 26,1 C 10,5 km/h (2 Bft)
17.06.2013 12:15 22,7 C 22,9 C 21,9 C 26,2 C 26,2 C 3,5 C 63 % 67 % 92 % 1016,0 hPa 0,0 l/m 7,7 km/h (2 Bft) O-NO 67 5 min 0,0 UV-I 15,3 C 26,2 C 11,6 km/h (2 Bft)
17.06.2013 12:20 22,9 C 22,9 C 22,1 C 26,3 C 26,3 C 3,4 C 62 % 66 % 89 % 1016,0 hPa 0,0 l/m 6,8 km/h (2 Bft) O-NO 67 5 min 0,0 UV-I 15,2 C 26,3 C 8,2 km/h (2 Bft)
17.06.2013 12:25 22,8 C 22,9 C 22,0 C 26,3 C 26,3 C 3,5 C 60 % 64 % 92 % 1016,0 hPa 0,0 l/m 7,6 km/h (2 Bft) O 90 5 min 0,0 UV-I 14,6 C 26,3 C 8,4 km/h (2 Bft)
17.06.2013 12:30 22,7 C 22,9 C 22,0 C 26,0 C 26,0 C 3,3 C 61 % 66 % 87 % 1016,0 hPa 0,0 l/m 8,9 km/h (2 Bft) O-SO 112 5 min 0,0 UV-I 14,8 C 26,0 C 7,7 km/h (2 Bft)
17.06.2013 12:35 22,8 C 22,9 C 22,1 C 26,1 C 26,1 C 3,3 C 61 % 65 % 87 % 1015,8 hPa 0,0 l/m 8,2 km/h (2 Bft) O-NO 67 5 min 0,0 UV-I 14,9 C 26,1 C 6,3 km/h (2 Bft)
17.06.2013 12:41 23,0 C 22,9 C 22,3 C 26,3 C 26,3 C 3,3 C 59 % 63 % 87 % 1015,8 hPa 0,0 l/m 7,1 km/h (2 Bft) N 0 6 min 0,0 UV-I 14,5 C 26,3 C 10,1 km/h (2 Bft)
17.06.2013 13:00 23,6 C 23,0 C 22,9 C 27,3 C 27,3 C 3,7 C 61 % 65 % 97 % 1015,8 hPa 0,0 l/m 4,8 km/h (1 Bft) N 360 19 min 0,0 UV-I 15,6 C 27,3 C 7,7 km/h (2 Bft)
17.06.2013 13:05 23,5 C 23,0 C 22,9 C 27,1 C 27,1 C 3,6 C 60 % 64 % 95 % 1015,8 hPa 0,0 l/m 5,1 km/h (1 Bft) O-NO 67 5 min 0,0 UV-I 15,3 C 27,1 C 4,5 km/h (1 Bft)
17.06.2013 13:10 23,5 C 23,0 C 23,0 C 27,0 C 27,0 C 3,5 C 60 % 64 % 92 % 1015,8 hPa 0,0 l/m 6,0 km/h (2 Bft) O-NO 67 5 min 0,0 UV-I 15,3 C 27,0 C 8,4 km/h (2 Bft)
17.06.2013 13:15 23,6 C 23,0 C 23,0 C 27,0 C 27,0 C 3,4 C 60 % 64 % 89 % 1015,6 hPa 0,0 l/m 6,4 km/h (2 Bft) O-SO 112 5 min 0,0 UV-I 15,4 C 27,0 C 7,7 km/h (2 Bft)
17.06.2013 13:20 23,5 C 23,1 C 22,9 C 26,7 C 26,7 C 3,2 C 60 % 64 % 84 % 1015,6 hPa 0,0 l/m 6,6 km/h (2 Bft) O-NO 67 0 min 0,0 UV-I 15,3 C 26,7 C 8,0 km/h (2 Bft)
17.06.2013 13:25 23,5 C 23,1 C 22,8 C 26,2 C 26,2 C 2,7 C 60 % 64 % 71 % 1015,6 hPa 0,0 l/m 6,3 km/h (2 Bft) O 90 0 min 0,0 UV-I 15,3 C 26,2 C 6,1 km/h (2 Bft)
17.06.2013 13:30 23,3 C 23,1 C 22,7 C 25,6 C 25,6 C 2,3 C 60 % 64 % 61 % 1015,6 hPa 0,0 l/m 6,8 km/h (2 Bft) O 90 0 min 0,0 UV-I 15,1 C 25,6 C 6,3 km/h (2 Bft)
17.06.2013 13:35 23,5 C 23,1 C 23,0 C 26,0 C 26,0 C 2,5 C 59 % 64 % 66 % 1015,4 hPa 0,0 l/m 6,4 km/h (2 Bft) O-NO 67 0 min 0,0 UV-I 15,0 C 26,0 C 6,9 km/h (2 Bft)
17.06.2013 13:40 23,7 C 23,1 C 23,2 C 26,8 C 26,8 C 3,1 C 60 % 64 % 82 % 1015,4 hPa 0,0 l/m 7,1 km/h (2 Bft) O-NO 67 0 min 0,0 UV-I 15,5 C 26,8 C 9,0 km/h (2 Bft)
17.06.2013 13:45 23,6 C 23,2 C 23,3 C 26,9 C 26,9 C 3,3 C 60 % 63 % 87 % 1015,4 hPa 0,0 l/m 7,6 km/h (2 Bft) O 90 5 min 0,0 UV-I 15,4 C 26,9 C 7,6 km/h (2 Bft)
17.06.2013 13:50 23,9 C 23,2 C 23,9 C 27,5 C 27,5 C 3,6 C 59 % 61 % 95 % 1015,4 hPa 0,0 l/m 6,1 km/h (2 Bft) O-NO 67 5 min 0,0 UV-I 15,4 C 27,5 C 4,8 km/h (1 Bft)
17.06.2013 13:55 24,1 C 23,2 C 24,0 C 27,9 C 27,9 C 3,8 C 60 % 62 % 100 % 1015,4 hPa 0,0 l/m 4,8 km/h (1 Bft) O-NO 67 5 min 0,0 UV-I 15,8 C 27,9 C 6,6 km/h (2 Bft)
17.06.2013 14:00 24,1 C 23,1 C 23,9 C 28,0 C 28,0 C 3,9 C 59 % 62 % 100 % 1015,4 hPa 0,0 l/m 5,6 km/h (1 Bft) O-NO 67 5 min 0,0 UV-I 15,6 C 28,0 C 6,3 km/h (2 Bft)
17.06.2013 14:05 24,1 C 23,1 C 24,0 C 28,0 C 28,0 C 3,9 C 58 % 60 % 100 % 1015,4 hPa 0,0 l/m 6,6 km/h (2 Bft) O 90 5 min 0,0 UV-I 15,3 C 28,0 C 7,4 km/h (2 Bft)
17.06.2013 14:10 24,2 C 23,2 C 23,9 C 27,8 C 27,8 C 3,6 C 58 % 61 % 95 % 1015,4 hPa 0,0 l/m 7,4 km/h (2 Bft) O-SO 112 5 min 0,0 UV-I 15,4 C 27,8 C 10,6 km/h (2 Bft)
17.06.2013 14:15 24,3 C 23,2 C 23,9 C 27,9 C 27,9 C 3,6 C 60 % 64 % 95 % 1015,1 hPa 0,0 l/m 6,4 km/h (2 Bft) O-NO 67 5 min 0,0 UV-I 16,0 C 27,9 C 9,0 km/h (2 Bft)
17.06.2013 14:20 24,7 C 23,2 C 24,1 C 28,8 C 28,8 C 4,1 C 61 % 64 % 100 % 1015,1 hPa 0,0 l/m 4,5 km/h (1 Bft) O-NO 67 5 min 0,0 UV-I 16,7 C 28,8 C 7,7 km/h (2 Bft)
17.06.2013 14:25 24,7 C 23,2 C 24,2 C 29,0 C 29,0 C 4,3 C 59 % 62 % 100 % 1015,1 hPa 0,0 l/m 5,0 km/h (1 Bft) O 90 5 min 0,0 UV-I 16,1 C 29,0 C 11,3 km/h (2 Bft)
17.06.2013 14:30 24,6 C 23,3 C 24,1 C 28,6 C 28,6 C 4,0 C 57 % 60 % 100 % 1015,1 hPa 0,0 l/m 7,6 km/h (2 Bft) O 90 5 min 0,0 UV-I 15,5 C 28,6 C 12,6 km/h (3 Bft)
17.06.2013 14:35 24,5 C 23,3 C 24,1 C 28,2 C 28,2 C 3,7 C 58 % 61 % 97 % 1015,1 hPa 0,0 l/m 8,4 km/h (2 Bft) O-NO 67 5 min 0,0 UV-I 15,7 C 28,2 C 9,5 km/h (2 Bft)
17.06.2013 14:40 24,7 C 23,3 C 24,3 C 28,0 C 28,0 C 3,3 C 60 % 63 % 87 % 1015,1 hPa 0,0 l/m 8,0 km/h (2 Bft) O 90 5 min 0,0 UV-I 16,4 C 28,0 C 8,9 km/h (2 Bft)
17.06.2013 14:45 24,7 C 23,3 C 24,3 C 28,2 C 28,2 C 3,5 C 58 % 62 % 92 % 1015,1 hPa 0,0 l/m 7,1 km/h (2 Bft) SO 135 5 min 0,0 UV-I 15,9 C 28,2 C 10,9 km/h (2 Bft)
17.06.2013 14:50 24,7 C 23,3 C 24,3 C 28,2 C 28,2 C 3,5 C 57 % 61 % 92 % 1015,1 hPa 0,0 l/m 8,0 km/h (2 Bft) O 90 5 min 0,0 UV-I 15,6 C 28,2 C 10,9 km/h (2 Bft)
17.06.2013 14:55 24,7 C 23,3 C 24,3 C 28,1 C 28,1 C 3,4 C 57 % 60 % 89 % 1015,1 hPa 0,0 l/m 8,4 km/h (2 Bft) O 90 5 min 0,0 UV-I 15,6 C 28,1 C 9,7 km/h (2 Bft)
17.06.2013 15:00 24,8 C 23,4 C 24,5 C 28,3 C 28,3 C 3,5 C 60 % 64 % 92 % 1015,1 hPa 0,0 l/m 6,8 km/h (2 Bft) O-NO 67 5 min 0,0 UV-I 16,5 C 28,3 C 4,0 km/h (1 Bft)
17.06.2013 15:05 25,0 C 23,4 C 24,4 C 28,6 C 28,6 C 3,6 C 57 % 59 % 95 % 1015,1 hPa 0,0 l/m 6,6 km/h (2 Bft) O-SO 112 5 min 0,0 UV-I 15,9 C 28,6 C 8,2 km/h (2 Bft)
17.06.2013 15:10 25,0 C 23,4 C 24,5 C 28,9 C 28,9 C 3,9 C 59 % 62 % 100 % 1015,1 hPa 0,0 l/m 5,1 km/h (1 Bft) O 90 5 min 0,0 UV-I 16,4 C 28,9 C 14,5 km/h (3 Bft)
17.06.2013 15:15 25,5 C 23,4 C 24,7 C 29,7 C 29,7 C 4,2 C 60 % 63 % 100 % 1014,8 hPa 0,0 l/m 3,9 km/h (1 Bft) O-NO 67 5 min 0,0 UV-I 17,2 C 29,7 C 3,2 km/h (1 Bft)
17.06.2013 15:20 25,6 C 23,4 C 24,8 C 30,4 C 30,4 C 4,8 C 59 % 61 % 100 % 1014,8 hPa 0,0 l/m 2,7 km/h (1 Bft) O-NO 67 5 min 0,0 UV-I 17,0 C 30,4 C 6,0 km/h (2 Bft)
17.06.2013 15:25 25,7 C 23,5 C 24,7 C 30,4 C 30,4 C 4,7 C 58 % 61 % 100 % 1014,8 hPa 0,0 l/m 3,5 km/h (1 Bft) NO 45 5 min 0,0 UV-I 16,8 C 30,4 C 5,1 km/h (1 Bft)
17.06.2013 15:30 25,7 C 23,5 C 24,8 C 30,3 C 30,3 C 4,6 C 59 % 61 % 100 % 1014,8 hPa 0,0 l/m 3,9 km/h (1 Bft) O-NO 67 5 min 0,0 UV-I 17,1 C 30,3 C 5,5 km/h (1 Bft)
17.06.2013 15:35 25,6 C 23,5 C 24,8 C 30,2 C 30,2 C 4,6 C 59 % 62 % 100 % 1014,8 hPa 0,0 l/m 3,7 km/h (1 Bft) O-NO 67 5 min 0,0 UV-I 17,0 C 30,2 C 5,5 km/h (1 Bft)
17.06.2013 15:40 25,7 C 23,5 C 24,9 C 30,3 C 30,3 C 4,6 C 60 % 64 % 100 % 1014,8 hPa 0,0 l/m 3,9 km/h (1 Bft) O 90 5 min 0,0 UV-I 17,3 C 30,3 C 5,0 km/h (1 Bft)
17.06.2013 15:45 25,8 C 23,5 C 25,0 C 30,4 C 30,4 C 4,6 C 59 % 63 % 100 % 1014,8 hPa 0,0 l/m 4,0 km/h (1 Bft) O-SO 112 5 min 0,0 UV-I 17,2 C 30,4 C 2,9 km/h (1 Bft)
17.06.2013 15:50 25,9 C 23,6 C 25,2 C 30,6 C 30,6 C 4,7 C 59 % 62 % 100 % 1014,8 hPa 0,0 l/m 3,7 km/h (1 Bft) O-NO 67 5 min 0,0 UV-I 17,3 C 30,6 C 3,7 km/h (1 Bft)
17.06.2013 15:55 26,1 C 23,6 C 25,1 C 30,8 C 30,8 C 4,7 C 59 % 64 % 100 % 1014,9 hPa 0,0 l/m 3,4 km/h (1 Bft) O-NO 67 5 min 0,0 UV-I 17,4 C 30,8 C 3,4 km/h (1 Bft)
17.06.2013 16:00 26,1 C 23,6 C 25,3 C 31,1 C 31,1 C 5,0 C 59 % 63 % 100 % 1014,9 hPa 0,0 l/m 3,4 km/h (1 Bft) O 90 5 min 0,0 UV-I 17,4 C 31,1 C 6,0 km/h (2 Bft)
17.06.2013 16:05 26,0 C 23,6 C 25,0 C 30,8 C 30,8 C 4,8 C 59 % 64 % 100 % 1014,9 hPa 0,0 l/m 4,0 km/h (1 Bft) O-NO 67 5 min 0,0 UV-I 17,4 C 30,8 C 2,9 km/h (1 Bft)
17.06.2013 16:10 26,0 C 23,7 C 25,1 C 30,7 C 30,7 C 4,7 C 58 % 61 % 100 % 1014,9 hPa 0,0 l/m 4,3 km/h (1 Bft) O-NO 67 5 min 0,0 UV-I 17,1 C 30,7 C 3,9 km/h (1 Bft)
17.06.2013 16:15 25,9 C 23,7 C 25,1 C 30,4 C 30,4 C 4,5 C 57 % 62 % 100 % 1014,8 hPa 0,0 l/m 4,8 km/h (1 Bft) O-SO 112 5 min 0,0 UV-I 16,7 C 30,4 C 5,6 km/h (1 Bft)
17.06.2013 16:20 25,8 C 23,7 C 25,2 C 30,1 C 30,1 C 4,3 C 59 % 63 % 100 % 1014,8 hPa 0,0 l/m 5,1 km/h (1 Bft) O-NO 67 5 min 0,0 UV-I 17,2 C 30,1 C 4,7 km/h (1 Bft)
17.06.2013 16:25 25,9 C 23,7 C 25,3 C 30,3 C 30,3 C 4,4 C 59 % 63 % 100 % 1014,8 hPa 0,0 l/m 4,7 km/h (1 Bft) O-SO 112 5 min 0,0 UV-I 17,3 C 30,3 C 7,1 km/h (2 Bft)
17.06.2013 16:30 25,9 C 23,8 C 25,3 C 30,1 C 30,1 C 4,2 C 59 % 63 % 100 % 1014,8 hPa 0,0 l/m 5,1 km/h (1 Bft) O-NO 67 5 min 0,0 UV-I 17,3 C 30,1 C 4,5 km/h (1 Bft)
17.06.2013 16:35 25,9 C 23,8 C 25,2 C 29,9 C 29,9 C 4,0 C 57 % 61 % 100 % 1014,6 hPa 0,0 l/m 6,0 km/h (2 Bft) O 90 5 min 0,0 UV-I 16,7 C 29,9 C 7,7 km/h (2 Bft)
17.06.2013 16:40 25,9 C 23,8 C 25,3 C 29,7 C 29,7 C 3,8 C 59 % 63 % 100 % 1014,6 hPa 0,0 l/m 6,0 km/h (2 Bft) O-NO 67 5 min 0,0 UV-I 17,3 C 29,7 C 6,9 km/h (2 Bft)
17.06.2013 16:45 25,9 C 23,8 C 25,2 C 29,8 C 29,8 C 3,9 C 58 % 62 % 100 % 1014,6 hPa 0,0 l/m 6,1 km/h (2 Bft) O 90 5 min 0,0 UV-I 17,0 C 29,8 C 6,4 km/h (2 Bft)
17.06.2013 16:50 25,9 C 23,9 C 25,2 C 29,7 C 29,7 C 3,8 C 60 % 64 % 100 % 1014,6 hPa 0,0 l/m 5,5 km/h (1 Bft) O-NO 67 5 min 0,0 UV-I 17,5 C 29,7 C 7,9 km/h (2 Bft)
17.06.2013 16:55 26,0 C 23,9 C 25,2 C 29,8 C 29,8 C 3,8 C 60 % 63 % 100 % 1014,2 hPa 0,0 l/m 4,8 km/h (1 Bft) O-NO 67 5 min 0,0 UV-I 17,6 C 29,8 C 5,5 km/h (1 Bft)
17.06.2013 17:00 25,9 C 23,9 C 25,2 C 29,7 C 29,7 C 3,8 C 59 % 63 % 100 % 1014,2 hPa 0,0 l/m 5,0 km/h (1 Bft) O-NO 67 5 min 0,0 UV-I 17,3 C 29,7 C 7,2 km/h (2 Bft)
17.06.2013 17:05 26,1 C 23,9 C 25,3 C 29,9 C 29,9 C 3,8 C 59 % 63 % 100 % 1014,2 hPa 0,0 l/m 5,1 km/h (1 Bft) O 90 5 min 0,0 UV-I 17,4 C 29,9 C 7,2 km/h (2 Bft)
17.06.2013 17:10 26,1 C 23,9 C 25,2 C 30,1 C 30,1 C 4,0 C 60 % 65 % 100 % 1014,2 hPa 0,0 l/m 4,7 km/h (1 Bft) O-NO 67 5 min 0,0 UV-I 17,7 C 30,1 C 4,2 km/h (1 Bft)
17.06.2013 17:15 26,1 C 23,9 C 25,3 C 30,3 C 30,3 C 4,2 C 59 % 63 % 100 % 1013,9 hPa 0,0 l/m 4,2 km/h (1 Bft) O-SO 112 5 min 0,0 UV-I 17,4 C 30,3 C 5,0 km/h (1 Bft)
17.06.2013 17:20 26,0 C 24,0 C 25,2 C 30,2 C 30,2 C 4,2 C 58 % 61 % 100 % 1013,9 hPa 0,0 l/m 4,8 km/h (1 Bft) O-NO 67 5 min 0,0 UV-I 17,1 C 30,2 C 10,5 km/h (2 Bft)
17.06.2013 17:25 25,9 C 24,0 C 25,2 C 29,9 C 29,9 C 4,0 C 60 % 64 % 100 % 1013,9 hPa 0,0 l/m 4,7 km/h (1 Bft) O-NO 67 5 min 0,0 UV-I 17,5 C 29,9 C 2,7 km/h (1 Bft)
17.06.2013 17:30 26,1 C 24,0 C 25,5 C 30,6 C 30,6 C 4,5 C 60 % 64 % 100 % 1013,9 hPa 0,0 l/m 3,7 km/h (1 Bft) O 90 5 min 0,0 UV-I 17,7 C 30,6 C 8,4 km/h (2 Bft)
17.06.2013 17:35 26,0 C 24,0 C 25,4 C 30,7 C 30,7 C 4,7 C 61 % 62 % 100 % 1014,2 hPa 0,0 l/m 3,1 km/h (1 Bft) O 90 5 min 0,0 UV-I 17,9 C 30,7 C 2,7 km/h (1 Bft)
17.06.2013 17:40 26,0 C 24,0 C 25,5 C 31,1 C 31,1 C 5,1 C 60 % 63 % 100 % 1014,2 hPa 0,0 l/m 2,7 km/h (1 Bft) O-NO 67 5 min 0,0 UV-I 17,6 C 31,1 C 1,9 km/h (1 Bft)
17.06.2013 17:45 26,1 C 24,1 C 25,4 C 31,2 C 31,2 C 5,1 C 60 % 63 % 100 % 1014,2 hPa 0,0 l/m 2,4 km/h (1 Bft) O-NO 67 5 min 0,0 UV-I 17,7 C 31,2 C 1,8 km/h (1 Bft)
17.06.2013 17:50 26,1 C 24,1 C 25,2 C 31,1 C 31,1 C 5,0 C 61 % 64 % 100 % 1014,2 hPa 0,0 l/m 3,1 km/h (1 Bft) O 90 5 min 0,0 UV-I 18,0 C 31,1 C 3,7 km/h (1 Bft)
17.06.2013 17:55 26,0 C 24,1 C 25,3 C 31,1 C 31,1 C 5,1 C 61 % 63 % 100 % 1014,1 hPa 0,0 l/m 2,7 km/h (1 Bft) O-SO 112 5 min 0,0 UV-I 17,9 C 31,1 C 3,2 km/h (1 Bft)
17.06.2013 18:00 25,9 C 24,1 C 25,3 C 30,5 C 30,5 C 4,6 C 61 % 63 % 100 % 1014,1 hPa 0,0 l/m 2,7 km/h (1 Bft) O-NO 67 5 min 0,0 UV-I 17,8 C 30,5 C 3,1 km/h (1 Bft)
17.06.2013 18:05 25,8 C 24,1 C 25,1 C 30,3 C 30,3 C 4,5 C 61 % 64 % 100 % 1014,1 hPa 0,0 l/m 3,2 km/h (1 Bft) O 90 5 min 0,0 UV-I 17,7 C 30,3 C 7,2 km/h (2 Bft)
17.06.2013 18:10 25,7 C 24,2 C 25,1 C 29,8 C 29,8 C 4,1 C 61 % 64 % 100 % 1014,1 hPa 0,0 l/m 4,0 km/h (1 Bft) O 90 5 min 0,0 UV-I 17,6 C 29,8 C 7,6 km/h (2 Bft)
17.06.2013 18:15 25,6 C 24,3 C 25,1 C 29,2 C 29,2 C 3,6 C 62 % 65 % 95 % 1013,8 hPa 0,0 l/m 5,1 km/h (1 Bft) SW 225 5 min 0,0 UV-I 17,8 C 29,2 C 3,7 km/h (1 Bft)
17.06.2013 18:20 25,6 C 24,3 C 25,1 C 29,1 C 29,1 C 3,5 C 62 % 65 % 92 % 1013,8 hPa 0,0 l/m 5,0 km/h (1 Bft) SO 135 5 min 0,0 UV-I 17,8 C 29,1 C 3,9 km/h (1 Bft)
17.06.2013 18:25 25,6 C 24,3 C 25,1 C 28,7 C 28,7 C 3,1 C 62 % 65 % 82 % 1013,8 hPa 0,0 l/m 4,2 km/h (1 Bft) O 90 0 min 0,0 UV-I 17,8 C 28,7 C 2,9 km/h (1 Bft)
17.06.2013 18:30 25,6 C 24,3 C 25,1 C 28,4 C 28,4 C 2,8 C 63 % 65 % 74 % 1013,8 hPa 0,0 l/m 3,1 km/h (1 Bft) O-NO 67 0 min 0,0 UV-I 18,0 C 28,4 C 2,7 km/h (1 Bft)
17.06.2013 18:35 25,6 C 24,3 C 25,1 C 28,7 C 28,7 C 3,1 C 63 % 65 % 82 % 1013,8 hPa 0,0 l/m 2,1 km/h (1 Bft) NO 45 0 min 0,0 UV-I 18,0 C 28,7 C 1,9 km/h (1 Bft)
17.06.2013 18:41 25,7 C 24,3 C 25,2 C 29,3 C 29,3 C 3,6 C 63 % 66 % 95 % 1013,8 hPa 0,0 l/m 1,9 km/h (1 Bft) N 0 6 min 0,0 UV-I 18,1 C 29,3 C 2,1 km/h (1 Bft)
17.06.2013 19:00 25,6 C 24,4 C 24,9 C 28,5 C 28,5 C 2,9 C 64 % 67 % 76 % 1013,4 hPa 0,0 l/m 3,2 km/h (1 Bft) O-NO 67 0 min 0,0 UV-I 18,3 C 28,5 C 2,4 km/h (1 Bft)
17.06.2013 19:05 25,5 C 24,4 C 24,9 C 28,4 C 28,4 C 2,9 C 64 % 67 % 76 % 1013,4 hPa 0,0 l/m 3,4 km/h (1 Bft) O-NO 67 0 min 0,0 UV-I 18,2 C 28,4 C 3,7 km/h (1 Bft)
17.06.2013 19:10 25,4 C 24,4 C 24,7 C 28,1 C 28,1 C 2,7 C 63 % 67 % 71 % 1013,4 hPa 0,0 l/m 3,7 km/h (1 Bft) O 90 0 min 0,0 UV-I 17,8 C 28,1 C 3,2 km/h (1 Bft)
17.06.2013 19:15 25,3 C 24,4 C 24,6 C 27,2 C 27,2 C 1,9 C 64 % 68 % 50 % 1013,4 hPa 0,0 l/m 3,2 km/h (1 Bft) NO 45 0 min 0,0 UV-I 18,0 C 27,2 C 3,1 km/h (1 Bft)
17.06.2013 19:20 25,2 C 24,4 C 24,4 C 26,4 C 26,4 C 1,2 C 64 % 68 % 32 % 1013,4 hPa 0,0 l/m 2,7 km/h (1 Bft) W-NW 292 0 min 0,0 UV-I 17,9 C 26,4 C 3,2 km/h (1 Bft)
17.06.2013 19:25 25,1 C 24,4 C 24,2 C 25,9 C 25,9 C 0,8 C 64 % 68 % 21 % 1013,4 hPa 0,0 l/m 2,7 km/h (1 Bft) O-NO 67 0 min 0,0 UV-I 17,8 C 25,9 C 5,0 km/h (1 Bft)
17.06.2013 19:30 24,9 C 24,5 C 24,2 C 25,5 C 25,5 C 0,6 C 65 % 70 % 16 % 1013,4 hPa 0,0 l/m 2,1 km/h (1 Bft) O-NO 67 0 min 0,0 UV-I 17,9 C 25,5 C 1,6 km/h (1 Bft)
17.06.2013 19:35 24,8 C 24,5 C 24,3 C 25,7 C 25,7 C 0,9 C 66 % 69 % 24 % 1013,1 hPa 0,0 l/m 1,8 km/h (1 Bft) O-NO 67 0 min 0,0 UV-I 18,0 C 25,7 C 3,2 km/h (1 Bft)
17.06.2013 19:40 24,9 C 24,5 C 24,3 C 26,6 C 26,6 C 1,7 C 66 % 69 % 45 % 1013,1 hPa 0,0 l/m 2,7 km/h (1 Bft) O-NO 67 0 min 0,0 UV-I 18,1 C 26,6 C 3,2 km/h (1 Bft)
17.06.2013 19:45 24,9 C 24,5 C 24,3 C 26,7 C 26,7 C 1,8 C 65 % 69 % 47 % 1013,1 hPa 0,0 l/m 3,4 km/h (1 Bft) O-NO 67 0 min 0,0 UV-I 17,9 C 26,7 C 3,2 km/h (1 Bft)
17.06.2013 19:50 24,8 C 24,5 C 24,1 C 26,2 C 26,2 C 1,4 C 66 % 69 % 37 % 1013,1 hPa 0,0 l/m 3,7 km/h (1 Bft) O-SO 112 0 min 0,0 UV-I 18,0 C 26,2 C 4,0 km/h (1 Bft)
17.06.2013 19:55 24,8 C 24,5 C 24,2 C 26,2 C 26,2 C 1,4 C 66 % 70 % 37 % 1013,1 hPa 0,0 l/m 3,5 km/h (1 Bft) O-NO 67 0 min 0,0 UV-I 18,0 C 26,2 C 2,7 km/h (1 Bft)
17.06.2013 20:00 24,7 C 24,5 C 24,1 C 26,4 C 26,4 C 1,7 C 67 % 71 % 45 % 1013,1 hPa 0,0 l/m 2,3 km/h (1 Bft) SO 135 0 min 0,0 UV-I 18,1 C 26,4 C 0,0 km/h (0 Bft)
17.06.2013 20:05 24,6 C 24,5 C 24,0 C 26,6 C 26,6 C 2,0 C 67 % 70 % 53 % 1013,1 hPa 0,0 l/m 1,0 km/h (0 Bft) N-NW 337 5 min 0,0 UV-I 18,1 C 26,6 C 0,0 km/h (0 Bft)
17.06.2013 20:10 24,6 C 24,5 C 24,0 C 26,2 C 26,2 C 1,6 C 68 % 72 % 42 % 1013,1 hPa 0,0 l/m 0,3 km/h (0 Bft) O 90 5 min 0,0 UV-I 18,3 C 26,2 C 0,0 km/h (0 Bft)
17.06.2013 20:15 24,6 C 24,5 C 23,9 C 25,8 C 25,8 C 1,2 C 68 % 71 % 32 % 1013,2 hPa 0,0 l/m 0,3 km/h (0 Bft) O-NO 67 0 min 0,0 UV-I 18,3 C 25,8 C 0,0 km/h (0 Bft)
17.06.2013 20:20 24,4 C 24,6 C 23,8 C 25,3 C 25,3 C 0,9 C 68 % 72 % 24 % 1013,2 hPa 0,0 l/m 1,3 km/h (1 Bft) O-SO 112 0 min 0,0 UV-I 18,1 C 25,3 C 4,0 km/h (1 Bft)
17.06.2013 20:25 24,5 C 24,6 C 23,9 C 25,0 C 25,0 C 0,5 C 68 % 72 % 13 % 1013,2 hPa 0,0 l/m 2,4 km/h (1 Bft) NO 45 0 min 0,0 UV-I 18,2 C 25,0 C 4,8 km/h (1 Bft)
17.06.2013 20:30 24,4 C 24,6 C 23,7 C 24,6 C 24,6 C 0,2 C 69 % 72 % 5 % 1013,2 hPa 0,0 l/m 3,7 km/h (1 Bft) O-NO 67 0 min 0,0 UV-I 18,3 C 24,6 C 4,0 km/h (1 Bft)
17.06.2013 20:35 24,3 C 24,6 C 23,6 C 24,4 C 24,4 C 0,1 C 69 % 73 % 3 % 1012,9 hPa 0,0 l/m 3,4 km/h (1 Bft) O-NO 67 0 min 0,0 UV-I 18,2 C 24,4 C 2,9 km/h (1 Bft)
17.06.2013 20:40 24,1 C 24,6 C 23,5 C 24,1 C 24,1 C 0,0 C 70 % 73 % 0 % 1012,9 hPa 0,0 l/m 2,6 km/h (1 Bft) O-NO 67 0 min 0,0 UV-I 18,3 C 24,1 C 4,0 km/h (1 Bft)
17.06.2013 20:45 24,1 C 24,6 C 23,4 C 24,0 C 23,9 C 0,0 C 70 % 73 % 0 % 1012,9 hPa 0,0 l/m 3,1 km/h (1 Bft) O 90 0 min 0,0 UV-I 18,3 C 23,9 C 5,1 km/h (1 Bft)
17.06.2013 20:50 24,0 C 24,6 C 23,2 C 23,9 C 23,7 C 0,0 C 70 % 74 % 0 % 1012,9 hPa 0,0 l/m 3,2 km/h (1 Bft) SO 135 0 min 0,0 UV-I 18,2 C 23,7 C 2,1 km/h (1 Bft)
17.06.2013 20:55 23,8 C 24,6 C 23,1 C 23,7 C 23,5 C 0,0 C 71 % 75 % 0 % 1012,8 hPa 0,0 l/m 2,7 km/h (1 Bft) O 90 0 min 0,0 UV-I 18,2 C 23,5 C 2,9 km/h (1 Bft)
17.06.2013 21:00 23,7 C 24,6 C 22,9 C 23,5 C 23,2 C 0,0 C 71 % 74 % 0 % 1012,8 hPa 0,0 l/m 1,8 km/h (1 Bft) O-NO 67 0 min 0,0 UV-I 18,1 C 23,2 C 2,9 km/h (1 Bft)
17.06.2013 21:05 23,5 C 24,6 C 22,9 C 23,3 C 23,0 C 0,0 C 71 % 74 % 0 % 1012,8 hPa 0,0 l/m 2,1 km/h (1 Bft) O-NO 67 0 min 0,0 UV-I 17,9 C 23,0 C 3,1 km/h (1 Bft)
17.06.2013 21:10 23,4 C 24,6 C 22,8 C 23,2 C 22,9 C 0,0 C 71 % 74 % 0 % 1012,8 hPa 0,0 l/m 3,5 km/h (1 Bft) O-NO 67 0 min 0,0 UV-I 17,8 C 22,9 C 5,8 km/h (2 Bft)
17.06.2013 21:15 23,3 C 24,6 C 22,9 C 23,1 C 22,7 C 0,0 C 72 % 74 % 0 % 1012,8 hPa 0,0 l/m 4,2 km/h (1 Bft) O-NO 67 0 min 0,0 UV-I 18,0 C 22,7 C 4,5 km/h (1 Bft)
17.06.2013 21:20 23,2 C 24,6 C 22,6 C 23,0 C 22,6 C 0,0 C 72 % 75 % 0 % 1012,8 hPa 0,0 l/m 3,5 km/h (1 Bft) O 90 0 min 0,0 UV-I 17,9 C 22,6 C 1,6 km/h (1 Bft)
17.06.2013 21:25 23,2 C 24,7 C 22,5 C 23,0 C 22,5 C 0,0 C 72 % 75 % 0 % 1012,8 hPa 0,0 l/m 2,4 km/h (1 Bft) O-NO 67 0 min 0,0 UV-I 17,9 C 22,5 C 1,8 km/h (1 Bft)
17.06.2013 21:30 23,1 C 24,7 C 22,2 C 22,8 C 22,2 C 0,0 C 73 % 76 % 0 % 1012,8 hPa 0,0 l/m 0,8 km/h (0 Bft) NO 45 0 min 0,0 UV-I 18,0 C 22,2 C 0,0 km/h (0 Bft)
17.06.2013 21:35 22,8 C 24,7 C 22,0 C 22,5 C 22,0 C 0,0 C 73 % 76 % 0 % 1013,1 hPa 0,0 l/m 0,3 km/h (0 Bft) O-SO 112 0 min 0,0 UV-I 17,7 C 22,0 C 0,0 km/h (0 Bft)
17.06.2013 21:40 22,7 C 24,7 C 21,6 C 22,3 C 21,5 C 0,0 C 74 % 77 % 0 % 1013,1 hPa 0,0 l/m 0,0 km/h (0 Bft) O-NO 67 0 min 0,0 UV-I 17,8 C 21,5 C 0,0 km/h (0 Bft)
17.06.2013 21:45 22,5 C 24,7 C 21,5 C 22,1 C 21,4 C 0,0 C 74 % 78 % 0 % 1013,1 hPa 0,0 l/m 0,0 km/h (0 Bft) S 180 0 min 0,0 UV-I 17,6 C 21,4 C 0,0 km/h (0 Bft)
17.06.2013 21:50 22,4 C 24,7 C 21,2 C 22,0 C 21,1 C 0,0 C 74 % 78 % 0 % 1013,1 hPa 0,0 l/m 0,0 km/h (0 Bft) O-NO 67 0 min 0,0 UV-I 17,5 C 21,1 C 0,0 km/h (0 Bft)
17.06.2013 21:55 22,3 C 24,7 C 21,1 C 21,8 C 20,9 C 0,0 C 75 % 78 % 0 % 1013,1 hPa 0,0 l/m 0,0 km/h (0 Bft) O-SO 112 0 min 0,0 UV-I 17,6 C 20,9 C 0,0 km/h (0 Bft)
17.06.2013 22:00 22,1 C 24,7 C 20,8 C 21,7 C 20,8 C 0,0 C 76 % 79 % 0 % 1013,1 hPa 0,0 l/m 0,2 km/h (0 Bft) N-NO 22 0 min 0,0 UV-I 17,7 C 20,8 C 0,0 km/h (0 Bft)
17.06.2013 22:05 22,0 C 24,8 C 20,8 C 21,6 C 20,8 C 0,0 C 76 % 79 % 0 % 1013,1 hPa 0,0 l/m 0,2 km/h (0 Bft) N-NW 337 0 min 0,0 UV-I 17,6 C 20,8 C 0,0 km/h (0 Bft)
17.06.2013 22:10 21,9 C 24,8 C 20,6 C 21,5 C 20,7 C 0,0 C 76 % 79 % 0 % 1013,1 hPa 0,0 l/m 0,0 km/h (0 Bft) NW 315 0 min 0,0 UV-I 17,5 C 20,7 C 0,0 km/h (0 Bft)
17.06.2013 22:15 21,7 C 24,8 C 20,6 C 21,3 C 20,5 C 0,0 C 77 % 80 % 0 % 1012,9 hPa 0,0 l/m 0,0 km/h (0 Bft) O-NO 67 0 min 0,0 UV-I 17,5 C 20,5 C 0,0 km/h (0 Bft)
17.06.2013 22:20 21,5 C 24,8 C 20,4 C 21,2 C 20,5 C 0,0 C 77 % 80 % 0 % 1012,9 hPa 0,0 l/m 0,0 km/h (0 Bft) O 90 0 min 0,0 UV-I 17,3 C 20,5 C 0,0 km/h (0 Bft)
17.06.2013 22:25 21,4 C 24,8 C 20,3 C 21,1 C 20,4 C 0,0 C 78 % 79 % 0 % 1012,9 hPa 0,0 l/m 0,0 km/h (0 Bft) O-NO 67 0 min 0,0 UV-I 17,4 C 20,4 C 0,0 km/h (0 Bft)
17.06.2013 22:30 21,3 C 24,8 C 20,3 C 21,0 C 20,3 C 0,0 C 78 % 80 % 0 % 1012,9 hPa 0,0 l/m 0,0 km/h (0 Bft) NO 45 0 min 0,0 UV-I 17,3 C 20,3 C 0,0 km/h (0 Bft)
17.06.2013 22:35 21,2 C 24,8 C 20,1 C 20,9 C 20,3 C 0,0 C 79 % 80 % 0 % 1013,0 hPa 0,0 l/m 0,0 km/h (0 Bft) O-NO 67 0 min 0,0 UV-I 17,4 C 20,3 C 0,0 km/h (0 Bft)
17.06.2013 22:40 21,2 C 24,9 C 20,1 C 20,9 C 20,2 C 0,0 C 79 % 80 % 0 % 1013,0 hPa 0,0 l/m 0,0 km/h (0 Bft) O-SO 112 0 min 0,0 UV-I 17,4 C 20,2 C 0,0 km/h (0 Bft)
17.06.2013 22:45 21,1 C 24,9 C 20,0 C 20,8 C 20,1 C 0,0 C 80 % 80 % 0 % 1013,0 hPa 0,0 l/m 0,0 km/h (0 Bft) O-NO 67 0 min 0,0 UV-I 17,5 C 20,1 C 0,0 km/h (0 Bft)
17.06.2013 22:50 20,9 C 25,0 C 20,0 C 20,6 C 20,0 C 0,0 C 80 % 81 % 0 % 1013,0 hPa 0,0 l/m 0,0 km/h (0 Bft) O 90 0 min 0,0 UV-I 17,3 C 20,0 C 0,0 km/h (0 Bft)
17.06.2013 22:55 20,8 C 25,0 C 19,9 C 20,5 C 19,9 C 0,0 C 80 % 81 % 0 % 1013,1 hPa 0,0 l/m 0,0 km/h (0 Bft) O-NO 67 0 min 0,0 UV-I 17,2 C 19,9 C 1,6 km/h (1 Bft)
17.06.2013 23:00 20,6 C 25,1 C 19,7 C 20,3 C 19,8 C 0,0 C 81 % 81 % 0 % 1013,1 hPa 0,0 l/m 0,0 km/h (0 Bft) O-NO 67 0 min 0,0 UV-I 17,2 C 19,8 C 0,0 km/h (0 Bft)
17.06.2013 23:05 20,5 C 25,1 C 19,6 C 20,2 C 19,7 C 0,0 C 81 % 81 % 0 % 1013,1 hPa 0,0 l/m 0,2 km/h (0 Bft) O-NO 67 0 min 0,0 UV-I 17,1 C 19,7 C 0,0 km/h (0 Bft)
17.06.2013 23:10 20,3 C 25,2 C 19,7 C 20,0 C 19,5 C 0,0 C 82 % 81 % 0 % 1013,1 hPa 0,0 l/m 0,6 km/h (0 Bft) O-NO 67 0 min 0,0 UV-I 17,1 C 19,5 C 1,8 km/h (1 Bft)
17.06.2013 23:15 20,1 C 25,2 C 19,5 C 19,9 C 19,5 C 0,0 C 82 % 81 % 0 % 1013,2 hPa 0,0 l/m 0,8 km/h (0 Bft) O-NO 67 0 min 0,0 UV-I 16,9 C 19,5 C 0,0 km/h (0 Bft)
17.06.2013 23:20 19,7 C 25,2 C 19,3 C 19,6 C 19,3 C 0,0 C 82 % 81 % 0 % 1013,2 hPa 0,0 l/m 0,3 km/h (0 Bft) O-NO 67 0 min 0,0 UV-I 16,5 C 19,3 C 0,0 km/h (0 Bft)
17.06.2013 23:25 19,6 C 25,2 C 19,3 C 19,5 C 19,2 C 0,0 C 82 % 81 % 0 % 1013,2 hPa 0,0 l/m 0,0 km/h (0 Bft) O-NO 67 0 min 0,0 UV-I 16,4 C 19,2 C 0,0 km/h (0 Bft)
17.06.2013 23:30 19,2 C 25,2 C 19,2 C 19,2 C 19,1 C 0,0 C 83 % 81 % 0 % 1013,2 hPa 0,0 l/m 1,0 km/h (0 Bft) O-NO 67 0 min 0,0 UV-I 16,2 C 19,1 C 0,0 km/h (0 Bft)
17.06.2013 23:35 19,1 C 25,3 C 19,1 C 19,1 C 19,0 C 0,0 C 83 % 81 % 0 % 1013,6 hPa 0,0 l/m 1,0 km/h (0 Bft) O-NO 67 0 min 0,0 UV-I 16,1 C 19,0 C 0,0 km/h (0 Bft)
17.06.2013 23:40 18,9 C 25,3 C 19,0 C 18,9 C 18,8 C 0,0 C 83 % 81 % 0 % 1013,6 hPa 0,0 l/m 0,2 km/h (0 Bft) O 90 0 min 0,0 UV-I 15,9 C 18,8 C 0,0 km/h (0 Bft)
17.06.2013 23:45 18,8 C 25,3 C 18,9 C 18,8 C 18,7 C 0,0 C 84 % 81 % 0 % 1013,6 hPa 0,0 l/m 0,0 km/h (0 Bft) O-NO 67 0 min 0,0 UV-I 16,0 C 18,7 C 0,0 km/h (0 Bft)
17.06.2013 23:50 18,6 C 25,3 C 18,9 C 18,6 C 18,6 C 0,0 C 84 % 81 % 0 % 1013,6 hPa 0,0 l/m 0,0 km/h (0 Bft) O-NO 67 0 min 0,0 UV-I 15,8 C 18,6 C 0,0 km/h (0 Bft)
17.06.2013 23:55 18,5 C 25,4 C 18,8 C 18,5 C 18,5 C 0,0 C 84 % 81 % 0 % 1012,8 hPa 0,0 l/m 0,0 km/h (0 Bft) O 90 0 min 0,0 UV-I 15,7 C 18,5 C 0,0 km/h (0 Bft)
_ Min-Zeit 05:35 09:00 05:00 04:15 04:15 00:00 14:30 15:05 00:00 20:55 - 00:00 - - - 00:00 05:35 04:15 00:00
Minimum _ 9,4 C 22,6 C 11,1 C 9,9 C 9,9 C 0,0 C 57 % 59 % 0 % 1012,8 hPa - 0,0 km/h (0 Bft) - - - 0,0 UV-I 7,7 C 9,9 C 0,0 km/h (0 Bft)
_ Max-Zeit 15:55 23:55 17:30 17:45 17:45 08:15 07:00 02:25 07:40 03:15 00:00 12:30 - - 13:00 06:41 20:30 17:45 15:10
Maximum _ 26,1 C 25,4 C 25,5 C 31,2 C 31,2 C 8,1 C 92 % 83 % 100 % 1017,2 hPa 0,0 l/m 8,9 km/h
O-SO (2 Bft)
- - 19 min 0,2 UV-I 18,3 C 31,2 C 14,5 km/h
O (3 Bft)
Durchschnitt _ 18,9 C 23,7 C 18,9 C 21,1 C 21,0 C 2,2 C 74 % 74 % 51 % 1015,4 hPa #0,0 l/m 2,5 km/h (1 Bft) O-NO - #10:16 h 0,1 UV-I 13,7 C 21,0 C 3,1 km/h (1 Bft)
2013 www.wetterstation-wechselburg.de